Time;durP1;ratioP1;P1;durP2;ratioP2;P2;SDS_P1;SDS_P2;PMS_P1;PMS_P2;Temp;Humidity;BMP_temperature;BMP_pressure;BME280_temperature;BME280_humidity;BME280_pressure;Samples;Min_cycle;Max_cycle;Signal;HPM_P1;HPM_P2
2022/06/21 00:02:09;;;;;;;;;9.67;9.00;;;;;;;;5058076;28;45373;-70
2022/06/21 00:04:34;;;;;;;;;11.67;10.33;;;;;;;;5058311;28;45368;-70
2022/06/21 00:07:01;;;;;;;;;7.33;7.33;;;;;;;;5057836;28;45194;-69
2022/06/21 00:09:26;;;;;;;;;12.00;9.33;;;;;;;;5058121;28;45363;-70
2022/06/21 00:11:52;;;;;;;;;15.00;10.67;;;;;;;;5058030;28;45305;-69
2022/06/21 00:14:17;;;;;;;;;9.33;8.67;;;;;;;;5058250;28;45313;-70
2022/06/21 00:16:42;;;;;;;;;7.00;7.00;;;;;;;;5057867;28;45383;-70
2022/06/21 00:19:15;;;;;;;;;6.67;6.67;;;;;;;;5057748;28;45417;-70
2022/06/21 00:21:40;;;;;;;;;9.67;8.33;;;;;;;;5057777;28;45414;-69
2022/06/21 00:24:06;;;;;;;;;6.67;6.00;;;;;;;;5058097;28;45321;-70
2022/06/21 00:26:32;;;;;;;;;10.67;9.67;;;;;;;;5057697;28;45509;-70
2022/06/21 00:28:57;;;;;;;;;11.00;8.33;;;;;;;;5057782;28;45310;-70
2022/06/21 00:31:25;;;;;;;;;11.33;9.00;;;;;;;;5057661;28;45297;-70
2022/06/21 00:33:50;;;;;;;;;7.33;7.33;;;;;;;;5057787;28;45510;-70
2022/06/21 00:36:23;;;;;;;;;7.00;6.00;;;;;;;;5057383;28;46946;-70
2022/06/21 00:38:50;;;;;;;;;12.33;11.33;;;;;;;;5057457;28;45456;-70
2022/06/21 00:41:16;;;;;;;;;12.67;10.00;;;;;;;;5057635;28;45330;-70
2022/06/21 00:43:53;;;;;;;;;10.33;10.33;;;;;;;;5057867;28;45281;-69
2022/06/21 00:46:39;;;;;;;;;11.67;10.67;;;;;;;;5057498;28;46170;-69
2022/06/21 00:49:11;;;;;;;;;14.00;11.00;;;;;;;;5057234;28;45274;-69
2022/06/21 00:51:38;;;;;;;;;13.67;10.67;;;;;;;;5057359;28;45251;-69
2022/06/21 00:54:24;;;;;;;;;16.33;10.67;;;;;;;;5057504;28;45468;-70
2022/06/21 00:56:53;;;;;;;;;11.00;8.67;;;;;;;;5057290;28;45898;-69
2022/06/21 00:59:21;;;;;;;;;13.67;9.00;;;;;;;;5057007;28;45384;-70
2022/06/21 01:01:47;;;;;;;;;17.00;13.00;;;;;;;;5056320;28;45665;-70
2022/06/21 01:04:34;;;;;;;;;14.00;14.00;;;;;;;;5057221;28;45168;-71
2022/06/21 01:07:01;;;;;;;;;12.00;11.67;;;;;;;;5056839;28;45346;-70
2022/06/21 01:09:42;;;;;;;;;12.67;11.33;;;;;;;;5056939;28;45372;-70
2022/06/21 01:12:19;;;;;;;;;10.67;10.33;;;;;;;;5056696;28;45439;-69
2022/06/21 01:14:56;;;;;;;;;13.67;13.67;;;;;;;;5057170;28;45450;-70
2022/06/21 01:17:21;;;;;;;;;13.00;11.33;;;;;;;;5056822;28;45827;-69
2022/06/21 01:19:48;;;;;;;;;10.67;8.00;;;;;;;;5056850;28;45447;-70
2022/06/21 01:22:13;;;;;;;;;13.00;10.67;;;;;;;;5057173;28;45263;-70
2022/06/21 01:24:56;;;;;;;;;15.67;13.00;;;;;;;;5057111;28;45347;-70
2022/06/21 01:27:21;;;;;;;;;16.67;13.67;;;;;;;;5056498;28;45459;-70
2022/06/21 01:29:47;;;;;;;;;15.67;13.67;;;;;;;;5056917;28;45384;-70
2022/06/21 01:32:13;;;;;;;;;14.00;13.67;;;;;;;;5056747;28;45382;-70
2022/06/21 01:34:39;;;;;;;;;16.00;13.67;;;;;;;;5056937;28;45376;-68
2022/06/21 01:37:07;;;;;;;;;16.33;13.33;;;;;;;;5056706;28;45558;-70
2022/06/21 01:39:46;;;;;;;;;16.67;14.00;;;;;;;;5056631;28;45258;-69
2022/06/21 01:42:16;;;;;;;;;17.00;14.00;;;;;;;;5056756;28;46499;-70
2022/06/21 01:44:45;;;;;;;;;22.00;16.67;;;;;;;;5056957;28;45294;-70
2022/06/21 01:47:12;;;;;;;;;13.33;10.00;;;;;;;;5056749;28;45727;-69
2022/06/21 01:49:41;;;;;;;;;10.67;10.33;;;;;;;;5056347;28;45241;-70
2022/06/21 01:52:11;;;;;;;;;17.67;13.00;;;;;;;;5056671;28;45356;-70
2022/06/21 01:54:39;;;;;;;;;12.67;12.33;;;;;;;;5056881;28;45254;-70
2022/06/21 01:57:05;;;;;;;;;13.00;11.67;;;;;;;;5056505;28;46052;-69
2022/06/21 01:59:33;;;;;;;;;15.33;11.00;;;;;;;;5056521;28;45408;-69
2022/06/21 02:01:58;;;;;;;;;11.33;9.67;;;;;;;;5056537;28;45499;-69
2022/06/21 02:04:26;;;;;;;;;14.33;14.33;;;;;;;;5056705;28;45269;-69
2022/06/21 02:06:53;;;;;;;;;16.00;12.00;;;;;;;;5059999;28;45449;-70
2022/06/21 02:09:19;;;;;;;;;16.33;15.67;;;;;;;;5059752;28;45453;-70
2022/06/21 02:11:50;;;;;;;;;12.67;12.67;;;;;;;;5060159;28;45333;-69
2022/06/21 02:14:29;;;;;;;;;19.67;15.67;;;;;;;;5060108;28;45417;-69
2022/06/21 02:17:15;;;;;;;;;18.67;14.00;;;;;;;;5059537;28;45317;-70
2022/06/21 02:19:42;;;;;;;;;17.00;14.33;;;;;;;;5041239;28;45382;-70
2022/06/21 02:22:17;;;;;;;;;19.00;15.00;;;;;;;;5059728;28;45222;-70
2022/06/21 02:24:42;;;;;;;;;15.67;14.33;;;;;;;;5060060;28;45446;-70
2022/06/21 02:27:09;;;;;;;;;16.00;14.00;;;;;;;;5059319;28;46534;-70
2022/06/21 02:29:34;;;;;;;;;17.00;13.00;;;;;;;;5059702;28;45419;-69
2022/06/21 02:31:59;;;;;;;;;15.67;13.00;;;;;;;;5059708;28;45208;-70
2022/06/21 02:34:35;;;;;;;;;12.67;12.67;;;;;;;;5059707;28;45516;-70
2022/06/21 02:37:01;;;;;;;;;13.33;12.00;;;;;;;;5059620;28;46598;-70
2022/06/21 02:39:28;;;;;;;;;12.67;11.33;;;;;;;;5059309;28;45380;-70
2022/06/21 02:42:04;;;;;;;;;14.33;13.33;;;;;;;;5059486;28;45400;-70
2022/06/21 02:44:38;;;;;;;;;19.67;16.00;;;;;;;;5059654;28;45277;-69
2022/06/21 02:47:12;;;;;;;;;11.67;9.67;;;;;;;;5059354;28;46315;-69
2022/06/21 02:49:47;;;;;;;;;14.67;13.00;;;;;;;;5058948;28;45360;-70
2022/06/21 02:52:15;;;;;;;;;15.67;15.67;;;;;;;;5059366;28;45344;-70
2022/06/21 02:54:50;;;;;;;;;19.33;14.33;;;;;;;;5059567;28;45296;-69
2022/06/21 02:57:21;;;;;;;;;21.00;18.00;;;;;;;;5059111;28;46103;-70
2022/06/21 02:59:47;;;;;;;;;14.67;13.33;;;;;;;;5058845;28;45407;-70
2022/06/21 03:02:14;;;;;;;;;13.00;13.00;;;;;;;;5059204;28;45317;-70
2022/06/21 03:04:47;;;;;;;;;15.00;15.00;;;;;;;;5059172;28;45408;-69
2022/06/21 03:07:16;;;;;;;;;20.33;16.33;;;;;;;;5058727;28;45692;-69
2022/06/21 03:09:42;;;;;;;;;18.67;16.00;;;;;;;;5058978;28;45212;-70
2022/06/21 03:12:07;;;;;;;;;18.67;18.00;;;;;;;;5058775;28;45230;-69
2022/06/21 03:14:35;;;;;;;;;13.00;12.33;;;;;;;;5059098;28;45360;-70
2022/06/21 03:17:02;;;;;;;;;18.67;17.33;;;;;;;;5057287;28;46386;-70
2022/06/21 03:19:35;;;;;;;;;16.00;13.67;;;;;;;;5058641;28;45401;-70
2022/06/21 03:22:02;;;;;;;;;21.33;14.67;;;;;;;;5058657;28;45275;-70
2022/06/21 03:24:27;;;;;;;;;21.33;16.00;;;;;;;;5059039;28;45320;-69
2022/06/21 03:27:00;;;;;;;;;16.33;15.33;;;;;;;;5058354;28;46613;-69
2022/06/21 03:29:25;;;;;;;;;15.67;13.67;;;;;;;;5058642;28;45314;-71
2022/06/21 03:31:51;;;;;;;;;15.00;15.00;;;;;;;;5058816;28;45476;-70
2022/06/21 03:34:23;;;;;;;;;16.00;16.00;;;;;;;;5058665;28;45463;-69
2022/06/21 03:36:49;;;;;;;;;14.00;14.00;;;;;;;;5058372;28;45526;-70
2022/06/21 03:39:17;;;;;;;;;15.67;15.67;;;;;;;;5058428;28;45361;-69
2022/06/21 03:41:43;;;;;;;;;16.00;14.00;;;;;;;;5058465;28;45444;-71
2022/06/21 03:44:28;;;;;;;;;19.33;18.00;;;;;;;;5058531;28;45447;-70
2022/06/21 03:47:12;;;;;;;;;23.67;16.67;;;;;;;;5058198;28;46131;-70
2022/06/21 03:49:43;;;;;;;;;21.00;16.00;;;;;;;;5058121;28;45323;-69
2022/06/21 03:52:12;;;;;;;;;15.33;14.00;;;;;;;;5058342;28;45433;-70
2022/06/21 03:54:48;;;;;;;;;15.33;14.67;;;;;;;;5058428;28;45439;-69
2022/06/21 03:57:16;;;;;;;;;15.67;15.33;;;;;;;;5057658;28;46816;-70
2022/06/21 03:59:46;;;;;;;;;21.00;18.67;;;;;;;;5057881;28;45313;-69
2022/06/21 04:02:22;;;;;;;;;18.67;17.67;;;;;;;;5058104;28;45380;-70
2022/06/21 04:04:52;;;;;;;;;20.00;18.00;;;;;;;;5058211;28;45578;-70
2022/06/21 04:07:25;;;;;;;;;20.00;16.33;;;;;;;;5058077;28;45375;-69
2022/06/21 04:09:57;;;;;;;;;19.67;16.00;;;;;;;;5057997;28;45405;-69
2022/06/21 04:12:22;;;;;;;;;15.33;15.33;;;;;;;;5058026;28;45324;-70
2022/06/21 04:15:01;;;;;;;;;18.00;16.00;;;;;;;;5058291;28;45364;-70
2022/06/21 04:17:26;;;;;;;;;21.00;18.67;;;;;;;;5057599;28;46189;-71
2022/06/21 04:19:57;;;;;;;;;19.67;16.33;;;;;;;;5057530;28;45260;-70
2022/06/21 04:22:25;;;;;;;;;21.00;17.33;;;;;;;;5058217;28;45333;-70
2022/06/21 04:24:59;;;;;;;;;15.67;14.67;;;;;;;;5058025;28;45292;-70
2022/06/21 04:27:29;;;;;;;;;18.00;14.00;;;;;;;;5057026;28;45427;-71
2022/06/21 04:29:59;;;;;;;;;19.00;18.00;;;;;;;;5057767;28;45274;-71
2022/06/21 04:32:35;;;;;;;;;16.67;14.33;;;;;;;;5057703;28;45390;-70
2022/06/21 04:35:04;;;;;;;;;15.33;15.33;;;;;;;;5057792;28;45254;-70
2022/06/21 04:37:37;;;;;;;;;16.33;15.67;;;;;;;;5057331;28;45471;-70
2022/06/21 04:40:21;;;;;;;;;15.33;14.33;;;;;;;;5057614;28;45304;-70
2022/06/21 04:42:50;;;;;;;;;19.00;14.33;;;;;;;;5057564;28;45222;-69
2022/06/21 04:45:24;;;;;;;;;13.67;13.00;;;;;;;;5057758;28;45350;-69
2022/06/21 04:48:10;;;;;;;;;16.67;13.67;;;;;;;;5057268;28;47017;-69
2022/06/21 04:50:46;;;;;;;;;18.33;14.00;;;;;;;;5053175;28;45435;-70
2022/06/21 04:53:11;;;;;;;;;16.00;13.67;;;;;;;;5057501;28;45419;-70
2022/06/21 04:55:42;;;;;;;;;13.00;12.67;;;;;;;;5057653;28;45430;-69
2022/06/21 04:58:08;;;;;;;;;12.33;11.33;;;;;;;;5057260;28;46398;-69
2022/06/21 05:00:34;;;;;;;;;15.67;14.00;;;;;;;;5056979;28;45316;-69
2022/06/21 05:03:03;;;;;;;;;18.33;16.00;;;;;;;;5057047;28;45439;-69
2022/06/21 05:05:31;;;;;;;;;16.00;14.33;;;;;;;;5057189;28;45371;-69
2022/06/21 05:08:12;;;;;;;;;13.00;12.00;;;;;;;;5056986;28;45350;-68
2022/06/21 05:10:42;;;;;;;;;17.67;15.00;;;;;;;;5057109;28;45270;-69
2022/06/21 05:13:19;;;;;;;;;14.33;13.67;;;;;;;;5057244;28;45263;-69
2022/06/21 05:15:44;;;;;;;;;16.67;14.33;;;;;;;;5057393;28;45266;-69
2022/06/21 05:18:15;;;;;;;;;15.67;15.33;;;;;;;;5056717;28;45324;-68
2022/06/21 05:20:45;;;;;;;;;14.67;13.67;;;;;;;;5056773;28;45733;-68
2022/06/21 05:23:12;;;;;;;;;16.67;15.67;;;;;;;;5056995;28;45297;-69
2022/06/21 05:25:41;;;;;;;;;18.00;14.00;;;;;;;;5057171;28;45361;-69
2022/06/21 05:28:25;;;;;;;;;19.33;14.67;;;;;;;;5056585;28;46360;-68
2022/06/21 05:31:17;;;;;;;;;20.33;15.33;;;;;;;;5056533;28;45392;-68
2022/06/21 05:33:55;;;;;;;;;17.00;14.33;;;;;;;;5055732;28;45262;-69
2022/06/21 05:36:22;;;;;;;;;15.00;12.67;;;;;;;;5056926;28;45555;-69
2022/06/21 05:39:08;;;;;;;;;17.00;14.67;;;;;;;;5056861;28;45472;-69
2022/06/21 05:41:38;;;;;;;;;14.00;13.33;;;;;;;;5059924;28;45246;-70
2022/06/21 05:44:10;;;;;;;;;18.00;16.67;;;;;;;;5060368;28;45407;-69
2022/06/21 05:46:38;;;;;;;;;15.67;14.67;;;;;;;;5060605;28;45309;-69
2022/06/21 05:49:08;;;;;;;;;23.00;14.33;;;;;;;;5059956;28;46408;-68
2022/06/21 05:51:34;;;;;;;;;14.67;12.67;;;;;;;;5060116;28;45380;-70
2022/06/21 05:54:02;;;;;;;;;17.00;13.00;;;;;;;;5060317;28;45237;-69
2022/06/21 05:56:29;;;;;;;;;13.00;11.00;;;;;;;;5060138;28;45554;-69
2022/06/21 05:59:03;;;;;;;;;15.67;13.00;;;;;;;;5059569;28;46669;-69
2022/06/21 06:01:41;;;;;;;;;11.33;10.33;;;;;;;;5059858;28;45419;-69
2022/06/21 06:04:10;;;;;;;;;13.00;12.00;;;;;;;;5060083;28;45297;-69
2022/06/21 06:06:39;;;;;;;;;15.00;14.67;;;;;;;;5060196;28;45312;-69
2022/06/21 06:09:13;;;;;;;;;14.67;13.00;;;;;;;;5059655;28;47076;-70
2022/06/21 06:11:58;;;;;;;;;17.67;15.33;;;;;;;;5059833;28;45326;-69
2022/06/21 06:14:26;;;;;;;;;19.67;13.67;;;;;;;;5060015;28;45431;-69
2022/06/21 06:16:53;;;;;;;;;20.00;18.00;;;;;;;;5059944;28;45401;-69
2022/06/21 06:19:23;;;;;;;;;17.33;13.00;;;;;;;;5059416;28;45515;-69
2022/06/21 06:22:07;;;;;;;;;22.33;15.00;;;;;;;;5059828;28;45381;-69
2022/06/21 06:24:36;;;;;;;;;18.67;15.67;;;;;;;;5059772;28;45346;-69
2022/06/21 06:27:02;;;;;;;;;15.00;15.00;;;;;;;;5059929;28;45321;-68
2022/06/21 06:29:27;;;;;;;;;19.00;17.00;;;;;;;;5059455;28;45938;-69
2022/06/21 06:32:03;;;;;;;;;20.33;17.00;;;;;;;;5059362;28;45262;-69
2022/06/21 06:34:34;;;;;;;;;13.67;12.67;;;;;;;;5059493;28;45288;-68
2022/06/21 06:37:08;;;;;;;;;17.67;16.00;;;;;;;;5059691;28;45421;-69
2022/06/21 06:39:35;;;;;;;;;18.00;17.33;;;;;;;;5058793;28;45696;-69
2022/06/21 06:42:03;;;;;;;;;17.00;14.00;;;;;;;;5059347;28;45491;-69
2022/06/21 06:44:32;;;;;;;;;20.00;16.33;;;;;;;;5059480;28;45309;-69
2022/06/21 06:46:59;;;;;;;;;15.67;14.00;;;;;;;;5059448;28;45391;-69
2022/06/21 06:49:43;;;;;;;;;13.33;12.33;;;;;;;;5057361;28;46556;-70
2022/06/21 06:52:16;;;;;;;;;15.67;15.67;;;;;;;;5058788;28;45528;-69
2022/06/21 06:54:53;;;;;;;;;22.67;17.67;;;;;;;;5059306;28;45335;-68
2022/06/21 06:57:29;;;;;;;;;11.67;11.67;;;;;;;;5059097;28;45262;-69
2022/06/21 06:59:56;;;;;;;;;20.33;14.00;;;;;;;;5057735;28;45381;-69
2022/06/21 07:02:24;;;;;;;;;12.33;12.33;;;;;;;;5058531;28;45282;-69
2022/06/21 07:05:02;;;;;;;;;18.00;14.67;;;;;;;;5059005;28;45306;-69
2022/06/21 07:07:36;;;;;;;;;12.00;11.00;;;;;;;;5059229;28;45567;-69
2022/06/21 07:10:04;;;;;;;;;13.00;11.33;;;;;;;;5058458;28;46393;-69
2022/06/21 07:12:31;;;;;;;;;17.33;11.67;;;;;;;;5058657;28;45470;-68
2022/06/21 07:14:57;;;;;;;;;12.00;12.00;;;;;;;;5058928;28;45524;-69
2022/06/21 07:17:22;;;;;;;;;16.67;14.33;;;;;;;;5058673;28;45404;-69
2022/06/21 07:19:48;;;;;;;;;13.33;11.33;;;;;;;;5058461;28;46781;-69
2022/06/21 07:22:21;;;;;;;;;14.33;12.67;;;;;;;;5058739;28;45259;-69
2022/06/21 07:25:02;;;;;;;;;17.33;13.33;;;;;;;;5058609;28;45333;-69
2022/06/21 07:27:29;;;;;;;;;16.67;15.33;;;;;;;;5058535;28;45498;-69
2022/06/21 07:30:14;;;;;;;;;14.67;11.67;;;;;;;;5058679;28;45466;-68
2022/06/21 07:32:49;;;;;;;;;14.67;11.67;;;;;;;;5058160;28;45443;-68
2022/06/21 07:35:18;;;;;;;;;13.67;12.33;;;;;;;;5058552;28;45264;-68
2022/06/21 07:37:50;;;;;;;;;12.67;12.67;;;;;;;;5058360;28;45440;-69
2022/06/21 07:40:32;;;;;;;;;10.33;10.33;;;;;;;;5058273;28;47342;-69
2022/06/21 07:43:04;;;;;;;;;18.00;13.67;;;;;;;;5058419;28;45369;-70
2022/06/21 07:45:38;;;;;;;;;11.00;11.00;;;;;;;;5058211;28;45430;-69
2022/06/21 07:48:19;;;;;;;;;11.33;11.00;;;;;;;;5058532;28;45525;-69
2022/06/21 07:50:52;;;;;;;;;11.33;10.33;;;;;;;;5058182;28;45284;-69
2022/06/21 07:53:29;;;;;;;;;11.33;11.33;;;;;;;;5058454;28;45315;-69
2022/06/21 07:56:01;;;;;;;;;12.67;10.67;;;;;;;;5058314;28;45514;-69
2022/06/21 07:58:32;;;;;;;;;14.33;13.00;;;;;;;;5058185;28;45467;-68
2022/06/21 08:06:43;;;;;;;;;12.33;12.33;;;;;;;;5058072;28;45407;-69
2022/06/21 08:09:29;;;;;;;;;13.67;11.67;;;;;;;;5058140;28;45321;-69
2022/06/21 08:12:00;;;;;;;;;11.33;10.00;;;;;;;;5057555;28;46920;-69
2022/06/21 08:14:27;;;;;;;;;10.33;9.67;;;;;;;;5057888;28;45444;-69
2022/06/21 08:16:55;;;;;;;;;11.00;10.00;;;;;;;;5057462;28;45289;-69
2022/06/21 08:19:27;;;;;;;;;11.00;9.67;;;;;;;;5057750;28;45571;-68
2022/06/21 08:22:06;;;;;;;;;13.67;12.00;;;;;;;;5057308;28;47107;-69
2022/06/21 08:24:52;;;;;;;;;10.33;10.33;;;;;;;;5057505;28;45351;-68
2022/06/21 08:27:20;;;;;;;;;13.00;11.00;;;;;;;;5057589;28;45289;-70
2022/06/21 08:29:50;;;;;;;;;9.33;9.33;;;;;;;;5058029;28;45218;-68
2022/06/21 08:32:28;;;;;;;;;8.33;6.00;;;;;;;;5057169;28;46344;-69
2022/06/21 08:34:56;;;;;;;;;7.33;7.33;;;;;;;;5057494;28;45512;-70
2022/06/21 08:37:26;;;;;;;;;11.33;9.00;;;;;;;;5057536;28;45376;-68
2022/06/21 08:39:54;;;;;;;;;10.33;9.00;;;;;;;;5057540;28;45415;-69
2022/06/21 08:42:38;;;;;;;;;14.67;10.33;;;;;;;;5057141;28;46372;-69
2022/06/21 08:47:59;;;;;;;;;10.00;8.00;;;;;;;;5057188;28;45360;-69
2022/06/21 08:50:36;;;;;;;;;9.00;8.33;;;;;;;;5057720;28;45458;-69
2022/06/21 08:53:24;;;;;;;;;10.33;9.00;;;;;;;;5057467;28;46632;-70
2022/06/21 08:55:55;;;;;;;;;11.00;9.00;;;;;;;;5056740;28;45369;-69
2022/06/21 08:58:33;;;;;;;;;13.00;9.00;;;;;;;;5057026;28;45309;-68
2022/06/21 09:01:11;;;;;;;;;11.67;9.00;;;;;;;;5057483;28;45377;-69
2022/06/21 09:03:36;;;;;;;;;14.33;11.33;;;;;;;;5057065;28;47258;-68
2022/06/21 09:06:20;;;;;;;;;9.00;8.00;;;;;;;;5056843;28;45301;-69
2022/06/21 09:08:54;;;;;;;;;14.00;12.33;;;;;;;;5057506;28;45282;-69
2022/06/21 09:11:33;;;;;;;;;17.67;17.00;;;;;;;;5057392;28;45396;-69
2022/06/21 09:14:10;;;;;;;;;12.67;9.67;;;;;;;;5057936;28;46470;-69
2022/06/21 09:16:47;;;;;;;;;11.67;9.33;;;;;;;;5060710;28;45242;-68
2022/06/21 09:19:26;;;;;;;;;11.33;9.00;;;;;;;;5060917;28;45389;-77
2022/06/21 09:22:00;;;;;;;;;16.67;12.33;;;;;;;;5060984;28;45373;-72
2022/06/21 09:24:40;;;;;;;;;7.00;6.00;;;;;;;;5060603;28;46603;-72
2022/06/21 09:27:24;;;;;;;;;10.00;8.33;;;;;;;;5042550;28;45211;-70
2022/06/21 09:29:49;;;;;;;;;9.33;8.00;;;;;;;;5060666;28;45368;-72
2022/06/21 09:32:26;;;;;;;;;9.67;7.67;;;;;;;;5061025;28;45195;-70
2022/06/21 09:35:09;;;;;;;;;8.00;8.00;;;;;;;;5060502;28;45313;-70
2022/06/21 09:37:45;;;;;;;;;10.00;10.00;;;;;;;;5060138;28;45430;-69
2022/06/21 09:40:19;;;;;;;;;9.67;9.33;;;;;;;;5060553;28;45380;-70
2022/06/21 09:43:03;;;;;;;;;9.00;9.00;;;;;;;;5060765;28;45373;-70
2022/06/21 09:45:34;;;;;;;;;10.00;10.00;;;;;;;;5060430;28;46378;-69
2022/06/21 09:48:27;;;;;;;;;9.33;8.00;;;;;;;;5060232;28;45397;-70
2022/06/21 09:51:01;;;;;;;;;7.00;7.00;;;;;;;;5060175;28;45387;-69
2022/06/21 09:53:39;;;;;;;;;11.33;11.33;;;;;;;;5060503;28;45238;-70
2022/06/21 09:56:14;;;;;;;;;10.00;8.00;;;;;;;;5059908;28;46402;-70
2022/06/21 09:58:44;;;;;;;;;8.00;7.33;;;;;;;;5059878;28;45367;-70
2022/06/21 10:01:15;;;;;;;;;9.00;9.00;;;;;;;;5060250;28;45294;-70
2022/06/21 10:03:50;;;;;;;;;11.00;9.00;;;;;;;;5060148;28;45357;-70
2022/06/21 10:06:41;;;;;;;;;8.67;8.00;;;;;;;;5059558;28;46636;-70
2022/06/21 10:09:15;;;;;;;;;10.33;7.00;;;;;;;;5037168;28;46364;-69
2022/06/21 10:11:41;;;;;;;;;8.33;8.33;;;;;;;;5038142;28;45409;-75
2022/06/21 10:14:41;;;;;;;;;12.67;9.33;;;;;;;;5054886;28;45257;-71
2022/06/21 10:17:22;;;;;;;;;8.67;8.00;;;;;;;;4978103;28;47098;-71
2022/06/21 10:19:50;;;;;;;;;10.33;8.00;;;;;;;;4977753;28;45438;-73
2022/06/21 10:22:24;;;;;;;;;8.00;8.00;;;;;;;;4978072;28;45398;-74
2022/06/21 10:25:04;;;;;;;;;8.33;7.67;;;;;;;;4978225;28;45685;-72
2022/06/21 10:27:39;;;;;;;;;8.33;7.33;;;;;;;;4977290;28;46543;-70
2022/06/21 10:30:07;;;;;;;;;8.67;6.67;;;;;;;;4977784;28;45287;-72
2022/06/21 10:32:51;;;;;;;;;5.67;5.67;;;;;;;;4978027;28;45352;-74
2022/06/21 10:35:25;;;;;;;;;10.00;8.00;;;;;;;;4978116;28;45447;-71
2022/06/21 10:38:05;;;;;;;;;7.00;7.00;;;;;;;;4977544;28;46164;-71
2022/06/21 10:40:47;;;;;;;;;9.00;9.00;;;;;;;;4977727;28;45554;-73
2022/06/21 10:43:21;;;;;;;;;11.33;7.00;;;;;;;;4977835;28;45510;-73
2022/06/21 10:45:46;;;;;;;;;6.00;6.00;;;;;;;;4986334;28;45414;-74
2022/06/21 10:48:30;;;;;;;;;4.67;4.67;;;;;;;;4997382;28;45460;-71
2022/06/21 10:50:56;;;;;;;;;8.00;8.00;;;;;;;;5023083;28;45341;-70
2022/06/21 10:53:37;;;;;;;;;5.33;5.33;;;;;;;;5059338;28;45259;-70
2022/06/21 10:59:19;;;;;;;;;9.00;5.00;;;;;;;;5058803;28;45731;-71
2022/06/21 11:01:48;;;;;;;;;5.00;5.00;;;;;;;;5036567;28;45497;-70
2022/06/21 11:04:13;;;;;;;;;8.67;8.67;;;;;;;;5036837;28;45442;-70
2022/06/21 11:06:44;;;;;;;;;9.00;6.00;;;;;;;;5036883;28;45407;-70
2022/06/21 11:09:09;;;;;;;;;7.00;7.00;;;;;;;;5036607;28;46368;-71
2022/06/21 11:11:48;;;;;;;;;5.33;5.00;;;;;;;;5035464;28;45537;-69
2022/06/21 11:14:16;;;;;;;;;6.00;4.00;;;;;;;;5036698;28;45299;-68
2022/06/21 11:16:41;;;;;;;;;9.00;6.00;;;;;;;;5036709;28;45424;-67
2022/06/21 11:19:07;;;;;;;;;6.00;6.00;;;;;;;;5036244;28;45530;-71
2022/06/21 11:21:32;;;;;;;;;8.33;5.00;;;;;;;;5036643;28;45539;-73
2022/06/21 11:24:16;;;;;;;;;7.00;7.00;;;;;;;;5036688;28;45637;-72
2022/06/21 11:26:41;;;;;;;;;6.67;6.33;;;;;;;;5036735;28;45375;-72
2022/06/21 11:29:25;;;;;;;;;6.00;6.00;;;;;;;;5036262;28;45383;-71
2022/06/21 11:31:54;;;;;;;;;7.00;7.00;;;;;;;;5036541;28;45419;-74
2022/06/21 11:34:19;;;;;;;;;5.67;5.67;;;;;;;;5036499;28;45460;-67
2022/06/21 11:36:56;;;;;;;;;5.67;5.00;;;;;;;;5035864;28;45377;-69
2022/06/21 11:39:30;;;;;;;;;6.33;5.00;;;;;;;;5037862;28;45453;-70
2022/06/21 11:42:08;;;;;;;;;7.33;5.00;;;;;;;;5038159;28;45234;-67
2022/06/21 11:44:39;;;;;;;;;6.33;6.33;;;;;;;;5038370;28;45432;-68
2022/06/21 11:47:10;;;;;;;;;6.67;5.00;;;;;;;;5038540;28;45210;-71
2022/06/21 11:49:35;;;;;;;;;4.00;4.00;;;;;;;;5038269;28;45560;-72
2022/06/21 11:52:03;;;;;;;;;5.00;5.00;;;;;;;;5037869;28;45271;-69
2022/06/21 11:54:33;;;;;;;;;6.33;5.33;;;;;;;;5038442;28;45267;-67
2022/06/21 11:57:21;;;;;;;;;6.00;6.00;;;;;;;;5038227;28;45317;-68
2022/06/21 12:00:00;;;;;;;;;7.00;5.00;;;;;;;;5133070;27;45731;-65
2022/06/21 12:02:25;;;;;;;;;5.33;5.00;;;;;;;;5135986;27;45341;-66
2022/06/21 12:04:50;;;;;;;;;9.67;8.00;;;;;;;;5135954;27;45243;-64
2022/06/21 12:07:22;;;;;;;;;6.33;6.33;;;;;;;;5136272;27;45336;-64
2022/06/21 12:10:01;;;;;;;;;5.00;5.00;;;;;;;;5135809;27;46514;-64
2022/06/21 12:12:29;;;;;;;;;4.00;4.00;;;;;;;;5135934;27;45350;-66
2022/06/21 12:15:13;;;;;;;;;11.00;7.67;;;;;;;;5136188;27;45303;-65
2022/06/21 12:17:51;;;;;;;;;5.67;4.00;;;;;;;;5136131;27;45327;-68
2022/06/21 12:20:19;;;;;;;;;7.00;5.67;;;;;;;;5135764;27;45392;-69
2022/06/21 12:22:47;;;;;;;;;6.67;5.33;;;;;;;;5135705;27;45428;-72
2022/06/21 12:25:14;;;;;;;;;5.00;5.00;;;;;;;;5136057;27;45342;-72
2022/06/21 12:27:39;;;;;;;;;7.00;6.33;;;;;;;;5136085;27;45316;-68
2022/06/21 12:30:23;;;;;;;;;6.33;5.67;;;;;;;;5135417;27;45429;-68
2022/06/21 12:32:50;;;;;;;;;7.00;7.00;;;;;;;;5135729;27;45271;-70
2022/06/21 12:35:17;;;;;;;;;9.00;7.67;;;;;;;;5135863;27;45315;-71
2022/06/21 12:38:05;;;;;;;;;8.00;5.00;;;;;;;;5135622;27;45262;-68
2022/06/21 12:40:35;;;;;;;;;7.67;6.00;;;;;;;;5094870;27;46906;-66
2022/06/21 12:43:00;;;;;;;;;6.00;6.00;;;;;;;;5112449;27;45516;-67
2022/06/21 12:45:40;;;;;;;;;7.33;7.00;;;;;;;;5112546;27;45506;-66
2022/06/21 12:48:24;;;;;;;;;8.00;7.00;;;;;;;;5112772;27;45385;-68
2022/06/21 12:51:11;;;;;;;;;5.67;5.33;;;;;;;;5112074;27;46122;-68
2022/06/21 12:53:40;;;;;;;;;6.33;5.33;;;;;;;;5105294;27;45312;-68
2022/06/21 12:56:24;;;;;;;;;9.00;6.00;;;;;;;;5112563;27;45401;-70
2022/06/21 12:58:58;;;;;;;;;7.33;7.00;;;;;;;;5112350;27;45531;-71
2022/06/21 13:01:46;;;;;;;;;8.33;6.33;;;;;;;;5111696;27;45892;-72
2022/06/21 13:04:20;;;;;;;;;6.67;5.00;;;;;;;;5108891;27;45483;-71
2022/06/21 13:07:00;;;;;;;;;2.00;2.00;;;;;;;;5112035;27;45732;-70
2022/06/21 13:09:25;;;;;;;;;7.00;7.00;;;;;;;;5109043;27;45408;-69
2022/06/21 13:12:03;;;;;;;;;5.67;5.67;;;;;;;;5098322;27;45424;-71
2022/06/21 13:14:45;;;;;;;;;9.00;6.00;;;;;;;;5098417;27;45483;-69
2022/06/21 13:17:14;;;;;;;;;8.00;8.00;;;;;;;;5106441;27;45316;-71
2022/06/21 13:19:39;;;;;;;;;7.00;6.67;;;;;;;;5121726;27;45344;-70
2022/06/21 13:22:16;;;;;;;;;9.00;5.33;;;;;;;;5120949;27;46609;-68
2022/06/21 13:24:55;;;;;;;;;11.33;10.33;;;;;;;;5121051;27;45279;-70
2022/06/21 13:27:34;;;;;;;;;8.33;6.00;;;;;;;;5121035;27;45401;-71
2022/06/21 13:30:18;;;;;;;;;7.00;5.33;;;;;;;;5121129;27;45553;-70
2022/06/21 13:32:54;;;;;;;;;5.00;5.00;;;;;;;;5120923;27;46345;-70
2022/06/21 13:35:27;;;;;;;;;5.67;5.67;;;;;;;;5120782;27;45376;-70
2022/06/21 13:38:12;;;;;;;;;5.00;5.00;;;;;;;;5120902;27;45339;-71
2022/06/21 13:40:48;;;;;;;;;4.33;4.00;;;;;;;;5121257;27;45355;-69
2022/06/21 13:43:25;;;;;;;;;7.33;5.00;;;;;;;;5120435;27;45341;-68
2022/06/21 13:46:09;;;;;;;;;3.67;3.67;;;;;;;;5120573;27;45337;-69
2022/06/21 13:48:40;;;;;;;;;6.00;5.00;;;;;;;;5120726;27;45309;-68
2022/06/21 13:51:23;;;;;;;;;3.00;3.00;;;;;;;;5121013;27;45276;-69
2022/06/21 13:53:48;;;;;;;;;4.00;4.00;;;;;;;;5120502;27;45432;-69
2022/06/21 13:56:23;;;;;;;;;6.00;5.00;;;;;;;;5120565;27;45443;-70
2022/06/21 13:58:52;;;;;;;;;4.67;4.67;;;;;;;;5120324;27;45500;-69
2022/06/21 14:01:20;;;;;;;;;4.67;4.67;;;;;;;;5120857;27;45379;-70
2022/06/21 14:03:55;;;;;;;;;5.33;5.33;;;;;;;;5120137;27;45363;-69
2022/06/21 14:06:26;;;;;;;;;5.00;5.00;;;;;;;;5120144;27;45283;-68
2022/06/21 14:08:54;;;;;;;;;8.00;5.00;;;;;;;;5120378;27;45201;-71
2022/06/21 14:11:31;;;;;;;;;6.67;6.00;;;;;;;;5120563;27;45429;-69
2022/06/21 14:14:13;;;;;;;;;9.00;9.00;;;;;;;;5119987;27;45330;-72
2022/06/21 14:16:42;;;;;;;;;4.33;4.33;;;;;;;;5119999;27;45271;-70
2022/06/21 14:19:08;;;;;;;;;6.00;4.00;;;;;;;;5119975;27;45508;-67
2022/06/21 14:21:33;;;;;;;;;10.33;8.33;;;;;;;;5118977;27;45776;-68
2022/06/21 14:24:04;;;;;;;;;6.33;4.00;;;;;;;;5111475;27;46056;-68
2022/06/21 14:26:30;;;;;;;;;7.67;4.00;;;;;;;;5099354;27;45319;-68
2022/06/21 14:29:01;;;;;;;;;3.67;3.67;;;;;;;;5099384;27;45314;-68
2022/06/21 14:31:36;;;;;;;;;5.00;5.00;;;;;;;;5099049;27;45308;-69
2022/06/21 14:34:02;;;;;;;;;4.33;4.33;;;;;;;;5099278;27;45357;-68
2022/06/21 14:36:36;;;;;;;;;3.00;3.00;;;;;;;;5099164;27;45462;-67
2022/06/21 14:39:05;;;;;;;;;5.33;5.33;;;;;;;;5099076;27;45342;-68
2022/06/21 14:41:40;;;;;;;;;4.00;4.00;;;;;;;;5099371;27;45439;-69
2022/06/21 14:44:05;;;;;;;;;5.00;4.00;;;;;;;;5098933;27;46528;-68
2022/06/21 14:46:48;;;;;;;;;3.33;3.00;;;;;;;;5099052;27;45504;-68
2022/06/21 14:49:19;;;;;;;;;4.67;4.67;;;;;;;;5099172;27;45421;-69
2022/06/21 14:51:50;;;;;;;;;7.33;6.00;;;;;;;;5098989;27;45228;-69
2022/06/21 14:54:24;;;;;;;;;4.00;3.00;;;;;;;;5098643;27;45467;-69
2022/06/21 14:57:00;;;;;;;;;5.67;4.00;;;;;;;;5098820;27;45262;-68
2022/06/21 14:59:43;;;;;;;;;3.00;2.00;;;;;;;;5099049;27;45502;-67
2022/06/21 15:02:18;;;;;;;;;3.00;3.00;;;;;;;;5099175;27;45245;-67
2022/06/21 15:04:43;;;;;;;;;7.00;3.33;;;;;;;;5098689;27;46257;-67
2022/06/21 15:07:11;;;;;;;;;4.00;4.00;;;;;;;;5098492;27;45423;-67
2022/06/21 15:09:43;;;;;;;;;2.33;2.33;;;;;;;;5099139;27;45236;-68
2022/06/21 15:12:11;;;;;;;;;3.00;3.00;;;;;;;;5099017;27;45350;-67